createdAt,value
2023-01-25T00:00:21.727Z,102429.70
2023-01-25T00:05:45.596Z,102423.65
2023-01-25T00:10:51.985Z,102412.62
2023-01-25T00:16:04.762Z,102411.41
2023-01-25T00:21:23.825Z,102407.99
2023-01-25T00:26:30.565Z,102408.00
2023-01-25T00:31:54.640Z,102404.56
2023-01-25T00:37:20.928Z,102395.62
2023-01-25T00:42:24.750Z,102390.80
2023-01-25T00:47:28.508Z,102389.80
2023-01-25T00:52:32.544Z,102386.02
2023-01-25T00:57:36.502Z,102388.43
2023-01-25T01:02:41.744Z,102385.69
2023-01-25T01:07:50.192Z,102368.72
2023-01-25T01:12:55.905Z,102363.06
2023-01-25T01:17:59.814Z,102347.81
2023-01-25T01:23:05.286Z,102343.98
2023-01-25T01:28:09.225Z,102338.49
2023-01-25T01:33:17.645Z,102332.48
2023-01-25T01:38:21.963Z,102336.11
2023-01-25T01:43:25.820Z,102328.56
2023-01-25T01:48:37.651Z,102325.23
2023-01-25T01:53:46.067Z,102321.27
2023-01-25T01:58:51.375Z,102320.90
2023-01-25T02:03:56.840Z,102315.06
2023-01-25T02:09:01.234Z,102307.90
2023-01-25T02:14:04.989Z,102316.18
2023-01-25T02:19:13.049Z,102312.73
2023-01-25T02:24:21.750Z,102310.69
2023-01-25T02:29:26.838Z,102315.66
2023-01-25T02:34:30.776Z,102311.85
2023-01-25T02:39:35.426Z,102303.77
2023-01-25T02:44:41.840Z,102304.48
2023-01-25T02:49:46.545Z,102304.30
2023-01-25T02:54:50.911Z,102301.55
2023-01-25T02:59:55.208Z,102301.39
2023-01-25T03:05:00.430Z,102302.11
2023-01-25T03:10:05.407Z,102296.86
2023-01-25T03:15:13.612Z,102288.79
2023-01-25T03:20:18.432Z,102286.73
2023-01-25T03:25:22.879Z,102281.65
2023-01-25T03:30:36.171Z,102279.64
2023-01-25T03:35:41.565Z,102269.55
2023-01-25T03:40:47.172Z,102268.35
2023-01-25T03:45:58.207Z,102268.73
2023-01-25T03:51:02.503Z,102262.38
2023-01-25T03:56:09.991Z,102259.84
2023-01-25T04:01:15.550Z,102255.56
2023-01-25T04:06:21.778Z,102250.06
2023-01-25T04:11:27.224Z,102243.05
2023-01-25T04:16:31.824Z,102244.06
2023-01-25T04:21:54.549Z,102236.11
2023-01-25T04:27:05.949Z,102228.67
2023-01-25T04:32:15.420Z,102224.58
2023-01-25T04:37:20.379Z,102220.52
2023-01-25T04:42:31.617Z,102219.83
2023-01-25T04:47:36.073Z,102222.77
2023-01-25T04:52:41.495Z,102217.17
2023-01-25T04:57:50.223Z,102216.45
2023-01-25T05:02:55.008Z,102209.70
2023-01-25T05:08:03.002Z,102208.89
2023-01-25T05:13:08.383Z,102202.05
2023-01-25T05:18:12.027Z,102197.83
2023-01-25T05:23:21.769Z,102195.75
2023-01-25T05:28:26.029Z,102191.40
2023-01-25T05:33:48.828Z,102190.25
2023-01-25T05:38:54.428Z,102187.88
2023-01-25T05:43:58.471Z,102176.02
2023-01-25T05:49:04.151Z,102178.73
2023-01-25T05:54:12.556Z,102178.80
2023-01-25T05:59:20.028Z,102176.34
2023-01-25T06:04:25.580Z,102172.36
2023-01-25T06:09:31.750Z,102165.65
2023-01-25T06:14:37.714Z,102157.75
2023-01-25T06:19:42.703Z,102159.61
2023-01-25T06:24:54.117Z,102158.92
2023-01-25T06:29:57.839Z,102163.00
2023-01-25T06:35:01.602Z,102161.48
2023-01-25T06:40:05.933Z,102164.63
2023-01-25T06:45:10.993Z,102162.11
2023-01-25T06:50:17.888Z,102156.58
2023-01-25T06:55:22.136Z,102150.77
2023-01-25T07:00:26.157Z,102148.09
2023-01-25T07:05:30.666Z,102142.80
2023-01-25T07:10:35.913Z,102142.23
2023-01-25T07:15:40.219Z,102139.96
2023-01-25T07:20:44.741Z,102132.22
2023-01-25T07:25:53.817Z,102135.13
2023-01-25T07:30:57.760Z,102130.28
2023-01-25T07:36:06.329Z,102132.13
2023-01-25T07:41:10.032Z,102126.08
2023-01-25T07:46:18.972Z,102122.90
2023-01-25T07:51:24.072Z,102121.22
2023-01-25T07:56:37.971Z,102115.27
2023-01-25T08:01:42.603Z,102110.40
2023-01-25T08:06:46.767Z,102109.12
2023-01-25T08:11:51.035Z,102103.28
2023-01-25T08:16:55.566Z,102101.03
2023-01-25T08:22:00.384Z,102100.84
2023-01-25T08:27:06.679Z,102103.92
2023-01-25T08:32:10.438Z,102105.16
2023-01-25T08:37:14.196Z,102100.71
2023-01-25T08:42:18.956Z,102092.00
2023-01-25T08:47:23.848Z,102081.48
2023-01-25T08:52:27.840Z,102069.58
2023-01-25T08:57:32.131Z,102060.20
2023-01-25T09:02:36.067Z,102052.04
2023-01-25T09:07:41.295Z,102048.73
2023-01-25T09:12:45.250Z,102051.14
2023-01-25T09:17:53.635Z,102052.58
2023-01-25T09:23:00.410Z,102055.97
2023-01-25T09:28:11.697Z,102056.73
2023-01-25T09:33:16.989Z,102048.59
2023-01-25T09:38:24.433Z,102039.46
2023-01-25T09:43:37.086Z,102028.58
2023-01-25T09:49:08.312Z,102028.04
2023-01-25T09:54:16.807Z,102022.55
2023-01-25T09:59:27.559Z,102006.20
2023-01-25T10:04:43.355Z,102000.95
2023-01-25T10:09:52.589Z,102000.60
2023-01-25T10:14:56.691Z,101996.63
2023-01-25T10:20:32.828Z,101992.21
2023-01-25T10:26:02.687Z,101988.33
2023-01-25T10:31:18.462Z,101979.10
2023-01-25T10:36:29.363Z,101974.73
2023-01-25T10:41:42.785Z,101968.20
2023-01-25T10:47:08.928Z,101964.77
2023-01-25T10:52:30.880Z,101966.09
2023-01-25T10:57:35.791Z,101959.65
2023-01-25T11:02:48.666Z,101956.11
2023-01-25T11:07:52.817Z,101949.91
2023-01-25T11:13:15.533Z,101936.67
2023-01-25T11:18:21.304Z,101925.35
2023-01-25T11:23:27.197Z,101915.73
2023-01-25T11:28:31.086Z,101904.41
2023-01-25T11:33:35.386Z,101893.27
2023-01-25T11:38:45.046Z,101881.84
2023-01-25T11:44:00.624Z,101861.12
2023-01-25T11:49:30.386Z,101850.40
2023-01-25T11:54:53.263Z,101840.02
2023-01-25T12:00:06.368Z,101838.41
2023-01-25T12:05:26.167Z,101827.70
2023-01-25T12:10:54.327Z,101819.71
2023-01-25T12:16:31.956Z,101810.55
2023-01-25T12:21:52.419Z,101801.19
2023-01-25T12:27:08.237Z,101784.45
2023-01-25T12:32:26.236Z,101775.58
2023-01-25T12:37:35.540Z,101770.84
2023-01-25T12:42:44.884Z,101761.69
2023-01-25T12:48:00.292Z,101754.85
2023-01-25T12:53:14.530Z,101750.75
2023-01-25T12:58:38.135Z,101743.21
2023-01-25T13:04:12.681Z,101743.37
2023-01-25T13:09:39.676Z,101740.91
2023-01-25T13:14:43.471Z,101728.07
2023-01-25T13:19:48.643Z,101723.15
2023-01-25T13:25:24.804Z,101716.30
2023-01-25T13:30:32.469Z,101716.08
2023-01-25T13:35:45.327Z,101711.61
2023-01-25T13:41:04.112Z,101699.63
2023-01-25T13:46:10.295Z,101693.91
2023-01-25T13:51:15.318Z,101694.42
2023-01-25T13:56:31.614Z,101694.13
2023-01-25T14:01:37.123Z,101689.27
2023-01-25T14:06:41.715Z,101688.17
2023-01-25T14:12:07.369Z,101682.99
2023-01-25T14:17:21.192Z,101681.82
2023-01-25T14:22:28.864Z,101676.14
2023-01-25T14:27:34.686Z,101667.50
2023-01-25T14:32:38.481Z,101652.97
2023-01-25T14:37:45.334Z,101648.80
2023-01-25T14:42:50.411Z,101639.43
2023-01-25T14:47:59.425Z,101629.80
2023-01-25T14:53:07.939Z,101621.16
2023-01-25T14:58:25.822Z,101614.86
2023-01-25T15:03:32.239Z,101606.33
2023-01-25T15:08:41.107Z,101598.83
2023-01-25T15:13:45.497Z,101595.43
2023-01-25T15:19:25.608Z,101585.84
2023-01-25T15:24:30.835Z,101577.63
2023-01-25T15:29:34.807Z,101574.05
2023-01-25T15:34:38.809Z,101573.48
2023-01-25T15:39:43.103Z,101568.13
2023-01-25T15:44:48.279Z,101559.71
2023-01-25T15:49:59.649Z,101557.25
2023-01-25T15:55:04.700Z,101551.63
2023-01-25T16:00:19.051Z,101543.64
2023-01-25T16:05:28.236Z,101536.67
2023-01-25T16:10:33.676Z,101528.84
2023-01-25T16:15:42.487Z,101521.96
2023-01-25T16:20:47.687Z,101519.27
2023-01-25T16:25:52.970Z,101513.99
2023-01-25T16:30:58.397Z,101511.98
2023-01-25T16:36:26.292Z,101509.48
2023-01-25T16:41:30.965Z,101503.64
2023-01-25T16:46:36.413Z,101502.88
2023-01-25T16:51:49.952Z,101503.45
2023-01-25T16:56:59.941Z,101497.50
2023-01-25T17:24:08.565Z,101459.42
2023-01-25T17:29:15.559Z,101446.52
2023-01-25T17:34:22.644Z,101445.42
2023-01-25T17:39:28.061Z,101445.36
2023-01-25T17:44:36.352Z,101442.55
2023-01-25T17:49:43.160Z,101438.23
2023-01-25T17:54:50.951Z,101434.98
2023-01-25T18:00:00.297Z,101433.30
2023-01-25T18:05:09.893Z,101420.26
2023-01-25T18:10:22.147Z,101416.36
2023-01-25T18:15:33.024Z,101412.94
2023-01-25T18:20:41.154Z,101413.67
2023-01-25T18:25:50.031Z,101406.75
2023-01-25T18:31:04.648Z,101400.30
2023-01-25T18:36:15.203Z,101391.87
2023-01-25T18:41:23.075Z,101387.79
2023-01-25T18:46:28.897Z,101384.94
2023-01-25T18:51:58.798Z,101380.23
2023-01-25T18:57:04.354Z,101372.58
2023-01-25T19:02:21.939Z,101366.56
2023-01-25T19:07:31.354Z,101355.73
2023-01-25T19:12:38.287Z,101355.49
2023-01-25T19:17:43.553Z,101354.94
2023-01-25T19:22:55.353Z,101347.42
2023-01-25T19:28:04.349Z,101337.67
2023-01-25T19:33:12.484Z,101337.73
2023-01-25T19:38:18.570Z,101334.20
2023-01-25T19:43:27.443Z,101331.24
2023-01-25T19:48:39.921Z,101326.92
2023-01-25T19:54:05.977Z,101324.89
2023-01-25T19:59:20.543Z,101319.08
2023-01-25T20:04:27.440Z,101308.20
2023-01-25T20:09:39.707Z,101305.06
2023-01-25T20:14:49.690Z,101291.27
2023-01-25T20:20:00.116Z,101287.36
2023-01-25T20:25:09.857Z,101280.36
2023-01-25T20:30:19.675Z,101270.39
2023-01-25T20:35:27.296Z,101264.04
2023-01-25T20:40:33.892Z,101253.98
2023-01-25T20:45:43.139Z,101250.61
2023-01-25T20:50:49.013Z,101249.52
2023-01-25T20:55:58.704Z,101245.17
2023-01-25T21:01:14.159Z,101233.02
2023-01-25T21:06:23.058Z,101227.77
2023-01-25T21:11:33.205Z,101221.52
2023-01-25T21:16:54.575Z,101214.83
2023-01-25T21:22:01.262Z,101211.27
2023-01-25T21:27:09.021Z,101215.42
2023-01-25T21:32:14.441Z,101211.63
2023-01-25T21:37:22.999Z,101211.80
2023-01-25T21:42:32.553Z,101207.52
2023-01-25T21:47:38.459Z,101211.85
2023-01-25T21:52:42.446Z,101216.20
2023-01-25T21:57:47.568Z,101210.45
2023-01-25T22:02:52.964Z,101211.99
2023-01-25T22:07:59.740Z,101203.23
2023-01-25T22:13:04.758Z,101203.91
2023-01-25T22:18:10.013Z,101200.05
2023-01-25T22:23:15.058Z,101189.13
2023-01-25T22:28:20.457Z,101186.26
2023-01-25T22:33:28.940Z,101181.05
2023-01-25T22:38:34.765Z,101172.70
2023-01-25T22:43:41.189Z,101163.75
2023-01-25T22:48:46.437Z,101152.63
2023-01-25T22:53:51.458Z,101148.02
2023-01-25T22:58:55.574Z,101139.04
2023-01-25T23:04:00.135Z,101130.25
2023-01-25T23:09:06.764Z,101124.00
2023-01-25T23:14:31.045Z,101118.67
2023-01-25T23:19:34.971Z,101115.35
2023-01-25T23:24:39.495Z,101109.63
2023-01-25T23:29:43.522Z,101102.66
2023-01-25T23:34:53.482Z,101097.86
2023-01-25T23:39:58.203Z,101093.77
2023-01-25T23:45:02.525Z,101082.89
2023-01-25T23:50:10.340Z,101083.98
2023-01-25T23:55:14.565Z,101077.17
